sensor_id;sensor_type;location;lat;lon;timestamp;temperature;humidity
3614;DHT22;1821;50.936;6.854;2023-02-13T00:00:22;9.90;99.90
3614;DHT22;1821;50.936;6.854;2023-02-13T00:01:04;9.40;99.90
3614;DHT22;1821;50.936;6.854;2023-02-13T00:01:46;10.30;99.90
3614;DHT22;1821;50.936;6.854;2023-02-13T00:02:28;9.50;99.90
3614;DHT22;1821;50.936;6.854;2023-02-13T00:03:10;9.70;99.90
3614;DHT22;1821;50.936;6.854;2023-02-13T00:03:52;10.30;99.90
3614;DHT22;1821;50.936;6.854;2023-02-13T00:04:34;10.30;99.90
3614;DHT22;1821;50.936;6.854;2023-02-13T00:05:16;9.40;99.90
3614;DHT22;1821;50.936;6.854;2023-02-13T00:05:58;9.40;99.90
3614;DHT22;1821;50.936;6.854;2023-02-13T00:06:39;9.90;99.90
3614;DHT22;1821;50.936;6.854;2023-02-13T00:07:21;10.40;99.90
3614;DHT22;1821;50.936;6.854;2023-02-13T00:08:03;9.70;99.90
3614;DHT22;1821;50.936;6.854;2023-02-13T00:08:45;9.60;99.90
3614;DHT22;1821;50.936;6.854;2023-02-13T00:09:27;9.70;99.90
3614;DHT22;1821;50.936;6.854;2023-02-13T00:10:09;9.70;99.90
3614;DHT22;1821;50.936;6.854;2023-02-13T00:10:51;9.80;99.90
3614;DHT22;1821;50.936;6.854;2023-02-13T00:11:32;10.10;99.90
3614;DHT22;1821;50.936;6.854;2023-02-13T00:12:14;9.40;99.90
3614;DHT22;1821;50.936;6.854;2023-02-13T00:12:56;9.30;99.90
3614;DHT22;1821;50.936;6.854;2023-02-13T00:13:38;9.90;99.90
3614;DHT22;1821;50.936;6.854;2023-02-13T00:14:19;10.00;99.90
3614;DHT22;1821;50.936;6.854;2023-02-13T00:15:02;9.80;99.90
3614;DHT22;1821;50.936;6.854;2023-02-13T00:15:44;9.50;99.90
3614;DHT22;1821;50.936;6.854;2023-02-13T00:16:25;9.70;99.90
3614;DHT22;1821;50.936;6.854;2023-02-13T00:17:07;9.70;99.90
3614;DHT22;1821;50.936;6.854;2023-02-13T00:17:49;10.10;99.90
3614;DHT22;1821;50.936;6.854;2023-02-13T00:18:36;9.50;99.90
3614;DHT22;1821;50.936;6.854;2023-02-13T00:19:18;9.50;99.90
3614;DHT22;1821;50.936;6.854;2023-02-13T00:20:00;9.70;99.90
3614;DHT22;1821;50.936;6.854;2023-02-13T00:20:41;10.70;99.90
3614;DHT22;1821;50.936;6.854;2023-02-13T00:21:23;9.80;99.90
3614;DHT22;1821;50.936;6.854;2023-02-13T00:22:05;10.10;99.90
3614;DHT22;1821;50.936;6.854;2023-02-13T00:22:47;9.80;99.90
3614;DHT22;1821;50.936;6.854;2023-02-13T00:23:30;9.40;99.90
3614;DHT22;1821;50.936;6.854;2023-02-13T00:24:12;9.60;99.90
3614;DHT22;1821;50.936;6.854;2023-02-13T00:24:54;9.40;99.90
3614;DHT22;1821;50.936;6.854;2023-02-13T00:25:38;9.30;99.90
3614;DHT22;1821;50.936;6.854;2023-02-13T00:26:20;9.70;99.90
3614;DHT22;1821;50.936;6.854;2023-02-13T00:27:02;9.70;99.90
3614;DHT22;1821;50.936;6.854;2023-02-13T00:27:44;9.40;99.90
3614;DHT22;1821;50.936;6.854;2023-02-13T00:28:26;9.50;99.90
3614;DHT22;1821;50.936;6.854;2023-02-13T00:29:07;9.90;99.90
3614;DHT22;1821;50.936;6.854;2023-02-13T00:29:49;9.60;99.90
3614;DHT22;1821;50.936;6.854;2023-02-13T00:30:31;9.60;99.90
3614;DHT22;1821;50.936;6.854;2023-02-13T00:31:16;10.10;99.90
3614;DHT22;1821;50.936;6.854;2023-02-13T00:31:58;9.60;99.90
3614;DHT22;1821;50.936;6.854;2023-02-13T00:32:41;9.90;99.90
3614;DHT22;1821;50.936;6.854;2023-02-13T00:33:23;10.10;99.90
3614;DHT22;1821;50.936;6.854;2023-02-13T00:34:05;9.50;99.90
3614;DHT22;1821;50.936;6.854;2023-02-13T00:34:47;10.40;99.90
3614;DHT22;1821;50.936;6.854;2023-02-13T00:35:28;9.40;99.90
3614;DHT22;1821;50.936;6.854;2023-02-13T00:36:16;9.90;99.90
3614;DHT22;1821;50.936;6.854;2023-02-13T00:36:58;10.30;99.90
3614;DHT22;1821;50.936;6.854;2023-02-13T00:37:39;9.70;99.90
3614;DHT22;1821;50.936;6.854;2023-02-13T00:38:21;9.90;99.90
3614;DHT22;1821;50.936;6.854;2023-02-13T00:39:03;9.70;99.90
3614;DHT22;1821;50.936;6.854;2023-02-13T00:39:45;9.30;99.90
3614;DHT22;1821;50.936;6.854;2023-02-13T00:40:26;10.40;99.90
3614;DHT22;1821;50.936;6.854;2023-02-13T00:41:09;9.60;99.90
3614;DHT22;1821;50.936;6.854;2023-02-13T00:41:51;9.90;99.90
3614;DHT22;1821;50.936;6.854;2023-02-13T00:42:33;9.60;99.90
3614;DHT22;1821;50.936;6.854;2023-02-13T00:43:15;9.50;99.90
3614;DHT22;1821;50.936;6.854;2023-02-13T00:43:56;9.90;99.90
3614;DHT22;1821;50.936;6.854;2023-02-13T00:44:38;9.30;99.90
3614;DHT22;1821;50.936;6.854;2023-02-13T00:45:20;9.50;99.90
3614;DHT22;1821;50.936;6.854;2023-02-13T00:46:02;9.80;99.90
3614;DHT22;1821;50.936;6.854;2023-02-13T00:46:44;9.70;99.90
3614;DHT22;1821;50.936;6.854;2023-02-13T00:47:26;9.60;99.90
3614;DHT22;1821;50.936;6.854;2023-02-13T00:48:07;9.60;99.90
3614;DHT22;1821;50.936;6.854;2023-02-13T00:48:49;9.70;99.90
3614;DHT22;1821;50.936;6.854;2023-02-13T00:49:31;9.90;99.90
3614;DHT22;1821;50.936;6.854;2023-02-13T00:50:13;9.30;99.90
3614;DHT22;1821;50.936;6.854;2023-02-13T00:50:54;9.60;99.90
3614;DHT22;1821;50.936;6.854;2023-02-13T00:51:37;9.60;99.90
3614;DHT22;1821;50.936;6.854;2023-02-13T00:52:19;9.30;99.90
3614;DHT22;1821;50.936;6.854;2023-02-13T00:53:00;9.60;99.90
3614;DHT22;1821;50.936;6.854;2023-02-13T00:53:42;9.60;99.90
3614;DHT22;1821;50.936;6.854;2023-02-13T00:54:24;9.50;99.90
3614;DHT22;1821;50.936;6.854;2023-02-13T00:55:08;9.90;99.90
3614;DHT22;1821;50.936;6.854;2023-02-13T00:55:50;9.50;99.90
3614;DHT22;1821;50.936;6.854;2023-02-13T00:56:32;9.70;99.90
3614;DHT22;1821;50.936;6.854;2023-02-13T00:57:14;9.70;99.90
3614;DHT22;1821;50.936;6.854;2023-02-13T00:57:56;9.90;99.90
3614;DHT22;1821;50.936;6.854;2023-02-13T00:58:37;9.50;99.90
3614;DHT22;1821;50.936;6.854;2023-02-13T00:59:19;10.10;99.90
3614;DHT22;1821;50.936;6.854;2023-02-13T01:00:01;9.50;99.90
3614;DHT22;1821;50.936;6.854;2023-02-13T01:00:43;9.70;99.90
3614;DHT22;1821;50.936;6.854;2023-02-13T01:01:27;9.60;99.90
3614;DHT22;1821;50.936;6.854;2023-02-13T01:02:09;9.80;99.90
3614;DHT22;1821;50.936;6.854;2023-02-13T01:02:51;9.70;99.90
3614;DHT22;1821;50.936;6.854;2023-02-13T01:03:33;9.40;99.90
3614;DHT22;1821;50.936;6.854;2023-02-13T01:04:14;10.20;99.90
3614;DHT22;1821;50.936;6.854;2023-02-13T01:04:56;9.20;99.90
3614;DHT22;1821;50.936;6.854;2023-02-13T01:05:38;9.80;99.90
3614;DHT22;1821;50.936;6.854;2023-02-13T01:06:20;9.40;99.90
3614;DHT22;1821;50.936;6.854;2023-02-13T01:07:02;9.30;99.90
3614;DHT22;1821;50.936;6.854;2023-02-13T01:07:43;10.00;99.90
3614;DHT22;1821;50.936;6.854;2023-02-13T01:08:25;9.80;99.90
3614;DHT22;1821;50.936;6.854;2023-02-13T01:09:09;10.20;99.90
3614;DHT22;1821;50.936;6.854;2023-02-13T01:09:50;9.60;99.90
3614;DHT22;1821;50.936;6.854;2023-02-13T01:10:32;9.70;99.90
3614;DHT22;1821;50.936;6.854;2023-02-13T01:11:14;9.50;99.90
3614;DHT22;1821;50.936;6.854;2023-02-13T01:11:56;9.60;99.90
3614;DHT22;1821;50.936;6.854;2023-02-13T01:12:37;9.70;99.90
3614;DHT22;1821;50.936;6.854;2023-02-13T01:13:19;9.90;99.90
3614;DHT22;1821;50.936;6.854;2023-02-13T01:14:01;9.70;99.90
3614;DHT22;1821;50.936;6.854;2023-02-13T01:14:43;9.50;99.90
3614;DHT22;1821;50.936;6.854;2023-02-13T01:15:25;10.20;99.90
3614;DHT22;1821;50.936;6.854;2023-02-13T01:16:07;9.40;99.90
3614;DHT22;1821;50.936;6.854;2023-02-13T01:16:48;9.90;99.90
3614;DHT22;1821;50.936;6.854;2023-02-13T01:17:30;10.10;99.90
3614;DHT22;1821;50.936;6.854;2023-02-13T01:18:17;10.30;99.90
3614;DHT22;1821;50.936;6.854;2023-02-13T01:18:59;9.90;99.90
3614;DHT22;1821;50.936;6.854;2023-02-13T01:19:41;9.60;99.90
3614;DHT22;1821;50.936;6.854;2023-02-13T01:20:24;9.60;99.90
3614;DHT22;1821;50.936;6.854;2023-02-13T01:21:11;9.80;99.90
3614;DHT22;1821;50.936;6.854;2023-02-13T01:21:55;9.50;99.90
3614;DHT22;1821;50.936;6.854;2023-02-13T01:22:37;10.00;99.90
3614;DHT22;1821;50.936;6.854;2023-02-13T01:23:19;9.50;99.90
3614;DHT22;1821;50.936;6.854;2023-02-13T01:24:04;9.50;99.90
3614;DHT22;1821;50.936;6.854;2023-02-13T01:24:46;9.40;99.90
3614;DHT22;1821;50.936;6.854;2023-02-13T01:25:28;9.50;99.90
3614;DHT22;1821;50.936;6.854;2023-02-13T01:26:18;9.70;99.90
3614;DHT22;1821;50.936;6.854;2023-02-13T01:27:00;9.70;99.90
3614;DHT22;1821;50.936;6.854;2023-02-13T01:27:43;9.70;99.90
3614;DHT22;1821;50.936;6.854;2023-02-13T01:28:25;9.60;99.90
3614;DHT22;1821;50.936;6.854;2023-02-13T01:29:06;9.90;99.90
3614;DHT22;1821;50.936;6.854;2023-02-13T01:29:49;10.00;99.90
3614;DHT22;1821;50.936;6.854;2023-02-13T01:30:31;9.40;99.90
3614;DHT22;1821;50.936;6.854;2023-02-13T01:31:13;10.20;99.90
3614;DHT22;1821;50.936;6.854;2023-02-13T01:31:55;9.10;99.90
3614;DHT22;1821;50.936;6.854;2023-02-13T01:32:37;9.60;99.90
3614;DHT22;1821;50.936;6.854;2023-02-13T01:33:18;9.80;99.90
3614;DHT22;1821;50.936;6.854;2023-02-13T01:34:00;9.60;99.90
3614;DHT22;1821;50.936;6.854;2023-02-13T01:34:42;9.70;99.90
3614;DHT22;1821;50.936;6.854;2023-02-13T01:35:24;9.50;99.90
3614;DHT22;1821;50.936;6.854;2023-02-13T01:36:07;9.70;99.90
3614;DHT22;1821;50.936;6.854;2023-02-13T01:36:49;9.70;99.90
3614;DHT22;1821;50.936;6.854;2023-02-13T01:37:31;10.30;99.90
3614;DHT22;1821;50.936;6.854;2023-02-13T01:38:13;9.90;99.90
3614;DHT22;1821;50.936;6.854;2023-02-13T01:38:56;10.10;99.90
3614;DHT22;1821;50.936;6.854;2023-02-13T01:39:39;9.60;99.90
3614;DHT22;1821;50.936;6.854;2023-02-13T01:40:20;9.40;99.90
3614;DHT22;1821;50.936;6.854;2023-02-13T01:41:03;9.50;99.90
3614;DHT22;1821;50.936;6.854;2023-02-13T01:41:44;9.20;99.90
3614;DHT22;1821;50.936;6.854;2023-02-13T01:42:29;9.70;99.90
3614;DHT22;1821;50.936;6.854;2023-02-13T01:43:11;9.50;99.90
3614;DHT22;1821;50.936;6.854;2023-02-13T01:43:59;9.60;99.90
3614;DHT22;1821;50.936;6.854;2023-02-13T01:44:48;9.80;99.90
3614;DHT22;1821;50.936;6.854;2023-02-13T01:45:31;9.70;99.90
3614;DHT22;1821;50.936;6.854;2023-02-13T01:46:17;9.40;99.90
3614;DHT22;1821;50.936;6.854;2023-02-13T01:46:59;9.90;99.90
3614;DHT22;1821;50.936;6.854;2023-02-13T01:47:44;9.60;99.90
3614;DHT22;1821;50.936;6.854;2023-02-13T01:48:27;9.70;99.90
3614;DHT22;1821;50.936;6.854;2023-02-13T01:49:19;10.10;99.90
3614;DHT22;1821;50.936;6.854;2023-02-13T01:50:07;9.30;99.90
3614;DHT22;1821;50.936;6.854;2023-02-13T01:50:57;9.70;99.90
3614;DHT22;1821;50.936;6.854;2023-02-13T01:51:41;9.40;99.90
3614;DHT22;1821;50.936;6.854;2023-02-13T01:52:23;10.00;99.90
3614;DHT22;1821;50.936;6.854;2023-02-13T01:53:09;9.30;99.90
3614;DHT22;1821;50.936;6.854;2023-02-13T01:54:39;9.60;99.90
3614;DHT22;1821;50.936;6.854;2023-02-13T01:55:21;9.60;99.90
3614;DHT22;1821;50.936;6.854;2023-02-13T01:58:14;9.40;99.90
3614;DHT22;1821;50.936;6.854;2023-02-13T01:59:00;9.30;99.90
3614;DHT22;1821;50.936;6.854;2023-02-13T02:00:10;10.00;99.90
3614;DHT22;1821;50.936;6.854;2023-02-13T02:00:52;9.40;99.90
3614;DHT22;1821;50.936;6.854;2023-02-13T02:01:35;9.40;99.90
3614;DHT22;1821;50.936;6.854;2023-02-13T02:02:18;9.90;99.90
3614;DHT22;1821;50.936;6.854;2023-02-13T02:03:13;9.30;99.90
3614;DHT22;1821;50.936;6.854;2023-02-13T02:04:06;10.00;99.90
3614;DHT22;1821;50.936;6.854;2023-02-13T02:04:48;10.10;99.90
3614;DHT22;1821;50.936;6.854;2023-02-13T02:05:32;9.70;99.90
3614;DHT22;1821;50.936;6.854;2023-02-13T02:06:24;9.90;99.90
3614;DHT22;1821;50.936;6.854;2023-02-13T02:07:10;9.20;99.90
3614;DHT22;1821;50.936;6.854;2023-02-13T02:07:55;9.80;99.90
3614;DHT22;1821;50.936;6.854;2023-02-13T02:08:39;9.60;99.90
3614;DHT22;1821;50.936;6.854;2023-02-13T02:09:24;9.40;99.90
3614;DHT22;1821;50.936;6.854;2023-02-13T02:10:11;9.50;99.90
3614;DHT22;1821;50.936;6.854;2023-02-13T02:10:55;9.50;99.90
3614;DHT22;1821;50.936;6.854;2023-02-13T02:11:59;10.10;99.90
3614;DHT22;1821;50.936;6.854;2023-02-13T02:12:53;9.90;99.90
3614;DHT22;1821;50.936;6.854;2023-02-13T02:13:36;9.60;99.90
3614;DHT22;1821;50.936;6.854;2023-02-13T02:14:19;9.20;99.90
3614;DHT22;1821;50.936;6.854;2023-02-13T02:15:03;10.30;99.90
3614;DHT22;1821;50.936;6.854;2023-02-13T02:15:47;9.80;99.90
3614;DHT22;1821;50.936;6.854;2023-02-13T02:16:30;9.50;99.90
3614;DHT22;1821;50.936;6.854;2023-02-13T02:17:13;9.70;99.90
3614;DHT22;1821;50.936;6.854;2023-02-13T02:17:55;9.30;99.90
3614;DHT22;1821;50.936;6.854;2023-02-13T02:18:37;9.90;99.90
3614;DHT22;1821;50.936;6.854;2023-02-13T02:22:05;9.40;99.90
3614;DHT22;1821;50.936;6.854;2023-02-13T02:23:22;9.70;99.90
3614;DHT22;1821;50.936;6.854;2023-02-13T02:25:11;9.30;99.90
3614;DHT22;1821;50.936;6.854;2023-02-13T02:27:33;9.50;99.90
3614;DHT22;1821;50.936;6.854;2023-02-13T02:28:29;10.50;99.90
3614;DHT22;1821;50.936;6.854;2023-02-13T02:38:22;9.30;99.90
3614;DHT22;1821;50.936;6.854;2023-02-13T02:40:43;9.60;99.90
3614;DHT22;1821;50.936;6.854;2023-02-13T02:41:32;9.50;99.90
3614;DHT22;1821;50.936;6.854;2023-02-13T02:44:39;9.30;99.90
3614;DHT22;1821;50.936;6.854;2023-02-13T02:48:15;9.60;99.90
3614;DHT22;1821;50.936;6.854;2023-02-13T02:49:18;9.30;99.90
3614;DHT22;1821;50.936;6.854;2023-02-13T02:52:15;9.30;99.90
3614;DHT22;1821;50.936;6.854;2023-02-13T02:55:41;9.20;99.90
3614;DHT22;1821;50.936;6.854;2023-02-13T02:56:37;9.60;99.90
3614;DHT22;1821;50.936;6.854;2023-02-13T02:57:48;9.40;99.90
3614;DHT22;1821;50.936;6.854;2023-02-13T02:59:02;10.10;99.90
3614;DHT22;1821;50.936;6.854;2023-02-13T03:00:04;9.50;99.90
3614;DHT22;1821;50.936;6.854;2023-02-13T03:01:22;9.00;99.90
3614;DHT22;1821;50.936;6.854;2023-02-13T03:02:23;9.60;99.90
3614;DHT22;1821;50.936;6.854;2023-02-13T03:03:24;9.40;99.90
3614;DHT22;1821;50.936;6.854;2023-02-13T03:05:32;10.10;99.90
3614;DHT22;1821;50.936;6.854;2023-02-13T03:06:38;9.60;99.90
3614;DHT22;1821;50.936;6.854;2023-02-13T03:07:21;9.40;99.90
3614;DHT22;1821;50.936;6.854;2023-02-13T03:08:03;9.40;99.90
3614;DHT22;1821;50.936;6.854;2023-02-13T03:08:53;9.20;99.90
3614;DHT22;1821;50.936;6.854;2023-02-13T03:10:09;9.60;99.90
3614;DHT22;1821;50.936;6.854;2023-02-13T03:11:10;9.30;99.90
3614;DHT22;1821;50.936;6.854;2023-02-13T03:12:13;9.80;99.90
3614;DHT22;1821;50.936;6.854;2023-02-13T03:13:27;9.20;99.90
3614;DHT22;1821;50.936;6.854;2023-02-13T03:14:14;9.40;99.90
3614;DHT22;1821;50.936;6.854;2023-02-13T03:14:56;9.50;99.90
3614;DHT22;1821;50.936;6.854;2023-02-13T03:15:41;9.50;99.90
3614;DHT22;1821;50.936;6.854;2023-02-13T03:16:42;9.90;99.90
3614;DHT22;1821;50.936;6.854;2023-02-13T03:17:43;9.70;99.90
3614;DHT22;1821;50.936;6.854;2023-02-13T03:18:46;10.10;99.90
3614;DHT22;1821;50.936;6.854;2023-02-13T03:21:18;9.20;99.90
3614;DHT22;1821;50.936;6.854;2023-02-13T03:23:13;9.40;99.90
3614;DHT22;1821;50.936;6.854;2023-02-13T03:24:19;9.40;99.90
3614;DHT22;1821;50.936;6.854;2023-02-13T03:26:13;9.20;99.90
3614;DHT22;1821;50.936;6.854;2023-02-13T03:27:12;9.50;99.90
3614;DHT22;1821;50.936;6.854;2023-02-13T03:28:26;9.60;99.90
3614;DHT22;1821;50.936;6.854;2023-02-13T03:29:30;9.80;99.90
3614;DHT22;1821;50.936;6.854;2023-02-13T03:31:52;9.20;99.90
3614;DHT22;1821;50.936;6.854;2023-02-13T03:32:46;9.20;99.90
3614;DHT22;1821;50.936;6.854;2023-02-13T03:34:04;9.20;99.90
3614;DHT22;1821;50.936;6.854;2023-02-13T03:35:47;9.40;99.90
3614;DHT22;1821;50.936;6.854;2023-02-13T03:36:57;9.30;99.90
3614;DHT22;1821;50.936;6.854;2023-02-13T03:38:04;9.10;99.90
3614;DHT22;1821;50.936;6.854;2023-02-13T03:39:08;9.00;99.90
3614;DHT22;1821;50.936;6.854;2023-02-13T03:40:02;8.90;99.90
3614;DHT22;1821;50.936;6.854;2023-02-13T03:40:50;9.80;99.90
3614;DHT22;1821;50.936;6.854;2023-02-13T03:42:00;9.50;99.90
3614;DHT22;1821;50.936;6.854;2023-02-13T03:42:59;9.10;99.90
3614;DHT22;1821;50.936;6.854;2023-02-13T03:44:54;9.40;99.90
3614;DHT22;1821;50.936;6.854;2023-02-13T03:45:58;9.30;99.90
3614;DHT22;1821;50.936;6.854;2023-02-13T03:46:46;9.20;99.90
3614;DHT22;1821;50.936;6.854;2023-02-13T03:47:28;9.60;99.90
3614;DHT22;1821;50.936;6.854;2023-02-13T03:48:13;9.90;99.90
3614;DHT22;1821;50.936;6.854;2023-02-13T03:49:25;9.30;99.90
3614;DHT22;1821;50.936;6.854;2023-02-13T03:50:27;9.20;99.90
3614;DHT22;1821;50.936;6.854;2023-02-13T03:51:12;9.40;99.90
3614;DHT22;1821;50.936;6.854;2023-02-13T03:53:13;9.10;99.90
3614;DHT22;1821;50.936;6.854;2023-02-13T03:53:59;9.50;99.90
3614;DHT22;1821;50.936;6.854;2023-02-13T03:54:47;10.00;99.90
3614;DHT22;1821;50.936;6.854;2023-02-13T03:55:53;9.40;99.90
3614;DHT22;1821;50.936;6.854;2023-02-13T03:56:54;9.30;99.90
3614;DHT22;1821;50.936;6.854;2023-02-13T03:57:58;9.50;99.90
3614;DHT22;1821;50.936;6.854;2023-02-13T03:59:01;9.70;99.90
3614;DHT22;1821;50.936;6.854;2023-02-13T04:00:00;9.90;99.90
3614;DHT22;1821;50.936;6.854;2023-02-13T04:00:46;9.40;99.90
3614;DHT22;1821;50.936;6.854;2023-02-13T04:01:31;9.50;99.90
3614;DHT22;1821;50.936;6.854;2023-02-13T04:02:19;9.30;99.90
3614;DHT22;1821;50.936;6.854;2023-02-13T04:05:25;9.40;99.90
3614;DHT22;1821;50.936;6.854;2023-02-13T04:06:20;9.10;99.90
3614;DHT22;1821;50.936;6.854;2023-02-13T04:07:11;9.20;99.90
3614;DHT22;1821;50.936;6.854;2023-02-13T04:08:10;9.30;99.90
3614;DHT22;1821;50.936;6.854;2023-02-13T04:08:52;9.00;99.90
3614;DHT22;1821;50.936;6.854;2023-02-13T04:09:37;9.30;99.90
3614;DHT22;1821;50.936;6.854;2023-02-13T04:10:21;9.30;99.90
3614;DHT22;1821;50.936;6.854;2023-02-13T04:11:27;9.40;99.90
3614;DHT22;1821;50.936;6.854;2023-02-13T04:12:28;9.20;99.90
3614;DHT22;1821;50.936;6.854;2023-02-13T04:14:13;9.10;99.90
3614;DHT22;1821;50.936;6.854;2023-02-13T04:15:06;9.60;99.90
3614;DHT22;1821;50.936;6.854;2023-02-13T04:15:54;9.30;99.90
3614;DHT22;1821;50.936;6.854;2023-02-13T04:16:49;9.70;99.90
3614;DHT22;1821;50.936;6.854;2023-02-13T04:17:36;9.20;99.90
3614;DHT22;1821;50.936;6.854;2023-02-13T04:18:24;8.80;99.90
3614;DHT22;1821;50.936;6.854;2023-02-13T04:19:08;9.20;99.90
3614;DHT22;1821;50.936;6.854;2023-02-13T04:19:50;9.50;99.90
3614;DHT22;1821;50.936;6.854;2023-02-13T04:20:32;8.90;99.90
3614;DHT22;1821;50.936;6.854;2023-02-13T04:21:14;9.20;99.90
3614;DHT22;1821;50.936;6.854;2023-02-13T04:21:58;9.10;99.90
3614;DHT22;1821;50.936;6.854;2023-02-13T04:22:42;9.60;99.90
3614;DHT22;1821;50.936;6.854;2023-02-13T04:23:24;9.70;99.90
3614;DHT22;1821;50.936;6.854;2023-02-13T04:24:07;9.10;99.90
3614;DHT22;1821;50.936;6.854;2023-02-13T04:24:49;9.10;99.90
3614;DHT22;1821;50.936;6.854;2023-02-13T04:25:31;8.80;99.90
3614;DHT22;1821;50.936;6.854;2023-02-13T04:26:17;8.70;99.90
3614;DHT22;1821;50.936;6.854;2023-02-13T04:27:00;9.30;99.90
3614;DHT22;1821;50.936;6.854;2023-02-13T04:27:42;9.20;99.90
3614;DHT22;1821;50.936;6.854;2023-02-13T04:28:24;9.20;99.90
3614;DHT22;1821;50.936;6.854;2023-02-13T04:29:06;9.40;99.90
3614;DHT22;1821;50.936;6.854;2023-02-13T04:29:48;9.40;99.90
3614;DHT22;1821;50.936;6.854;2023-02-13T04:30:31;8.80;99.90
3614;DHT22;1821;50.936;6.854;2023-02-13T04:31:13;9.20;99.90
3614;DHT22;1821;50.936;6.854;2023-02-13T04:31:55;9.40;99.90
3614;DHT22;1821;50.936;6.854;2023-02-13T04:32:40;9.60;99.90
3614;DHT22;1821;50.936;6.854;2023-02-13T04:33:22;9.20;99.90
3614;DHT22;1821;50.936;6.854;2023-02-13T04:34:03;9.30;99.90
3614;DHT22;1821;50.936;6.854;2023-02-13T04:34:45;9.00;99.90
3614;DHT22;1821;50.936;6.854;2023-02-13T04:35:27;9.20;99.90
3614;DHT22;1821;50.936;6.854;2023-02-13T04:36:09;9.00;99.90
3614;DHT22;1821;50.936;6.854;2023-02-13T04:36:51;9.40;99.90
3614;DHT22;1821;50.936;6.854;2023-02-13T04:37:32;9.00;99.90
3614;DHT22;1821;50.936;6.854;2023-02-13T04:38:14;9.20;99.90
3614;DHT22;1821;50.936;6.854;2023-02-13T04:38:56;9.20;99.90
3614;DHT22;1821;50.936;6.854;2023-02-13T04:39:38;9.20;99.90
3614;DHT22;1821;50.936;6.854;2023-02-13T04:40:19;8.90;99.90
3614;DHT22;1821;50.936;6.854;2023-02-13T04:41:01;9.40;99.90
3614;DHT22;1821;50.936;6.854;2023-02-13T04:41:43;9.40;99.90
3614;DHT22;1821;50.936;6.854;2023-02-13T04:42:25;9.00;99.90
3614;DHT22;1821;50.936;6.854;2023-02-13T04:43:07;9.20;99.90
3614;DHT22;1821;50.936;6.854;2023-02-13T04:43:49;8.80;99.90
3614;DHT22;1821;50.936;6.854;2023-02-13T04:44:32;9.10;99.90
3614;DHT22;1821;50.936;6.854;2023-02-13T04:45:15;9.70;99.90
3614;DHT22;1821;50.936;6.854;2023-02-13T04:45:57;8.70;99.90
3614;DHT22;1821;50.936;6.854;2023-02-13T04:46:39;8.80;99.90
3614;DHT22;1821;50.936;6.854;2023-02-13T04:47:20;8.60;99.90
3614;DHT22;1821;50.936;6.854;2023-02-13T04:48:02;8.90;99.90
3614;DHT22;1821;50.936;6.854;2023-02-13T04:48:44;9.00;99.90
3614;DHT22;1821;50.936;6.854;2023-02-13T04:49:26;9.40;99.90
3614;DHT22;1821;50.936;6.854;2023-02-13T04:50:08;9.00;99.90
3614;DHT22;1821;50.936;6.854;2023-02-13T04:50:50;8.60;99.90
3614;DHT22;1821;50.936;6.854;2023-02-13T04:51:31;8.60;99.90
3614;DHT22;1821;50.936;6.854;2023-02-13T04:52:13;9.30;99.90
3614;DHT22;1821;50.936;6.854;2023-02-13T04:52:57;9.20;99.90
3614;DHT22;1821;50.936;6.854;2023-02-13T04:53:39;8.80;99.90
3614;DHT22;1821;50.936;6.854;2023-02-13T04:54:20;8.90;99.90
3614;DHT22;1821;50.936;6.854;2023-02-13T04:55:02;9.40;99.90
3614;DHT22;1821;50.936;6.854;2023-02-13T04:55:44;8.70;99.90
3614;DHT22;1821;50.936;6.854;2023-02-13T04:56:26;8.80;99.90
3614;DHT22;1821;50.936;6.854;2023-02-13T04:57:08;8.90;99.90
3614;DHT22;1821;50.936;6.854;2023-02-13T04:57:53;8.40;99.90
3614;DHT22;1821;50.936;6.854;2023-02-13T04:58:35;8.80;99.90
3614;DHT22;1821;50.936;6.854;2023-02-13T04:59:17;8.60;99.90
3614;DHT22;1821;50.936;6.854;2023-02-13T04:59:59;9.60;99.90
3614;DHT22;1821;50.936;6.854;2023-02-13T05:00:41;8.40;99.90
3614;DHT22;1821;50.936;6.854;2023-02-13T05:01:22;8.50;99.90
3614;DHT22;1821;50.936;6.854;2023-02-13T05:02:04;8.50;99.90
3614;DHT22;1821;50.936;6.854;2023-02-13T05:02:46;8.50;99.90
3614;DHT22;1821;50.936;6.854;2023-02-13T05:03:28;9.20;99.90
3614;DHT22;1821;50.936;6.854;2023-02-13T05:04:10;9.00;99.90
3614;DHT22;1821;50.936;6.854;2023-02-13T05:04:56;8.70;99.90
3614;DHT22;1821;50.936;6.854;2023-02-13T05:05:39;8.70;99.90
3614;DHT22;1821;50.936;6.854;2023-02-13T05:06:21;8.30;99.90
3614;DHT22;1821;50.936;6.854;2023-02-13T05:07:02;8.30;99.90
3614;DHT22;1821;50.936;6.854;2023-02-13T05:07:44;8.40;99.90
3614;DHT22;1821;50.936;6.854;2023-02-13T05:08:26;8.10;99.90
3614;DHT22;1821;50.936;6.854;2023-02-13T05:09:09;8.10;99.90
3614;DHT22;1821;50.936;6.854;2023-02-13T05:09:51;8.10;99.90
3614;DHT22;1821;50.936;6.854;2023-02-13T05:10:34;8.10;99.90
3614;DHT22;1821;50.936;6.854;2023-02-13T05:11:15;8.30;99.90
3614;DHT22;1821;50.936;6.854;2023-02-13T05:11:57;8.20;99.90
3614;DHT22;1821;50.936;6.854;2023-02-13T05:12:39;8.50;99.90
3614;DHT22;1821;50.936;6.854;2023-02-13T05:13:21;8.50;99.90
3614;DHT22;1821;50.936;6.854;2023-02-13T05:14:03;8.40;99.90
3614;DHT22;1821;50.936;6.854;2023-02-13T05:14:45;8.20;99.90
3614;DHT22;1821;50.936;6.854;2023-02-13T05:15:29;8.70;99.90
3614;DHT22;1821;50.936;6.854;2023-02-13T05:16:11;8.20;99.90
3614;DHT22;1821;50.936;6.854;2023-02-13T05:16:53;8.20;99.90
3614;DHT22;1821;50.936;6.854;2023-02-13T05:17:35;8.60;99.90
3614;DHT22;1821;50.936;6.854;2023-02-13T05:18:18;8.60;99.90
3614;DHT22;1821;50.936;6.854;2023-02-13T05:19:00;7.90;99.90
3614;DHT22;1821;50.936;6.854;2023-02-13T05:19:42;8.20;99.90
3614;DHT22;1821;50.936;6.854;2023-02-13T05:20:23;8.00;99.90
3614;DHT22;1821;50.936;6.854;2023-02-13T05:21:05;8.00;99.90
3614;DHT22;1821;50.936;6.854;2023-02-13T05:22:07;8.00;99.90
3614;DHT22;1821;50.936;6.854;2023-02-13T05:23:12;8.20;99.90
3614;DHT22;1821;50.936;6.854;2023-02-13T05:24:03;7.80;99.90
3614;DHT22;1821;50.936;6.854;2023-02-13T05:24:45;7.80;99.90
3614;DHT22;1821;50.936;6.854;2023-02-13T05:25:27;7.80;99.90
3614;DHT22;1821;50.936;6.854;2023-02-13T05:26:09;7.70;99.90
3614;DHT22;1821;50.936;6.854;2023-02-13T05:26:50;8.10;99.90
3614;DHT22;1821;50.936;6.854;2023-02-13T05:27:32;8.20;99.90
3614;DHT22;1821;50.936;6.854;2023-02-13T05:28:14;7.90;99.90
3614;DHT22;1821;50.936;6.854;2023-02-13T05:29:15;8.70;99.90
3614;DHT22;1821;50.936;6.854;2023-02-13T05:29:59;8.00;99.90
3614;DHT22;1821;50.936;6.854;2023-02-13T05:30:41;8.00;99.90
3614;DHT22;1821;50.936;6.854;2023-02-13T05:31:23;7.70;99.90
3614;DHT22;1821;50.936;6.854;2023-02-13T05:32:05;7.80;99.90
3614;DHT22;1821;50.936;6.854;2023-02-13T05:32:47;7.70;99.90
3614;DHT22;1821;50.936;6.854;2023-02-13T05:33:31;7.70;99.90
3614;DHT22;1821;50.936;6.854;2023-02-13T05:34:13;7.90;99.90
3614;DHT22;1821;50.936;6.854;2023-02-13T05:34:55;7.90;99.90
3614;DHT22;1821;50.936;6.854;2023-02-13T05:35:36;8.00;99.90
3614;DHT22;1821;50.936;6.854;2023-02-13T05:36:18;7.70;99.90
3614;DHT22;1821;50.936;6.854;2023-02-13T05:37:00;7.90;99.90
3614;DHT22;1821;50.936;6.854;2023-02-13T05:37:42;7.90;99.90
3614;DHT22;1821;50.936;6.854;2023-02-13T05:38:24;7.90;99.90
3614;DHT22;1821;50.936;6.854;2023-02-13T05:39:07;8.00;99.90
3614;DHT22;1821;50.936;6.854;2023-02-13T05:39:48;7.70;99.90
3614;DHT22;1821;50.936;6.854;2023-02-13T05:40:30;7.80;99.90
3614;DHT22;1821;50.936;6.854;2023-02-13T05:41:12;7.60;99.90
3614;DHT22;1821;50.936;6.854;2023-02-13T05:41:54;8.00;99.90
3614;DHT22;1821;50.936;6.854;2023-02-13T05:42:36;7.80;99.90
3614;DHT22;1821;50.936;6.854;2023-02-13T05:43:18;7.50;99.90
3614;DHT22;1821;50.936;6.854;2023-02-13T05:44:01;7.60;99.90
3614;DHT22;1821;50.936;6.854;2023-02-13T05:44:43;7.60;99.90
3614;DHT22;1821;50.936;6.854;2023-02-13T05:45:24;7.90;99.90